<?xml version="1.0" encoding="UTF-8" standalone="no" ?>
<gpx xmlns="http://www.topografix.com/GPX/1/1" xmlns:xsi="http://www.w3.org/2001/XMLSchema-instance" xsi:schemaLocation="http://www.topografix.com/GPX/1/1 http://www.topografix.com/GPX/1/1/gpx.xsd" version="1.1" creator="VisuGPX - https://www.visugpx.com">
  <metadata>
    <name>24 03 19 VTT</name>
    <desc><![CDATA[24 03 19 randonnée VTT, près de BRAS]]></desc>
  </metadata>
  <trk>
    <name><![CDATA[BELGENT_BV]]></name>
    <desc><![CDATA[parcours BV modifié pour reconnaissance le 27 decembre]]></desc>
    <trkseg>
      <trkpt lat="43.24335" lon="6.00121">
        <ele>158.90625</ele>
      </trkpt>
      <trkpt lat="43.24387" lon="6.00063">
        <ele>154.8515625</ele>
      </trkpt>
      <trkpt lat="43.24418" lon="6.00049">
        <ele>153.875</ele>
      </trkpt>
      <trkpt lat="43.24451" lon="6.00048">
        <ele>153.60546875</ele>
      </trkpt>
      <trkpt lat="43.24502" lon="6.00044">
        <ele>154.12890625</ele>
      </trkpt>
      <trkpt lat="43.24517" lon="6.00039">
        <ele>154.53125</ele>
      </trkpt>
      <trkpt lat="43.24519" lon="6.00038">
        <ele>154.59375</ele>
      </trkpt>
      <trkpt lat="43.24515" lon="6.00017">
        <ele>154.57421875</ele>
      </trkpt>
      <trkpt lat="43.24526" lon="6.00002">
        <ele>155.52734375</ele>
      </trkpt>
      <trkpt lat="43.24528" lon="5.99996">
        <ele>155.78515625</ele>
      </trkpt>
      <trkpt lat="43.24516" lon="5.9996">
        <ele>156.70703125</ele>
      </trkpt>
      <trkpt lat="43.2451" lon="5.99941">
        <ele>157.78515625</ele>
      </trkpt>
      <trkpt lat="43.24511" lon="5.99936">
        <ele>158.1953125</ele>
      </trkpt>
      <trkpt lat="43.24526" lon="5.99922">
        <ele>160.00390625</ele>
      </trkpt>
      <trkpt lat="43.24529" lon="5.99919">
        <ele>160.35546875</ele>
      </trkpt>
      <trkpt lat="43.24539" lon="5.999">
        <ele>161.75390625</ele>
      </trkpt>
      <trkpt lat="43.2454" lon="5.99898">
        <ele>161.85546875</ele>
      </trkpt>
      <trkpt lat="43.24536" lon="5.99886">
        <ele>162.7890625</ele>
      </trkpt>
      <trkpt lat="43.24532" lon="5.99881">
        <ele>163.25</ele>
      </trkpt>
      <trkpt lat="43.24532" lon="5.99881">
        <ele>163.23828125</ele>
      </trkpt>
      <trkpt lat="43.2454" lon="5.99876">
        <ele>163.3828125</ele>
      </trkpt>
      <trkpt lat="43.24602" lon="5.99811">
        <ele>175.1</ele>
        <time>2018-12-24T13:20:37Z</time>
      </trkpt>
      <trkpt lat="43.24627" lon="5.99791">
        <ele>176.06</ele>
        <time>2018-12-24T13:21:00Z</time>
      </trkpt>
      <trkpt lat="43.24648" lon="5.99788">
        <ele>174.62</ele>
        <time>2018-12-24T13:21:20Z</time>
      </trkpt>
      <trkpt lat="43.24677" lon="5.99768">
        <ele>175.1</ele>
        <time>2018-12-24T13:21:43Z</time>
      </trkpt>
      <trkpt lat="43.24695" lon="5.99746">
        <ele>175.1</ele>
        <time>2018-12-24T13:22:02Z</time>
      </trkpt>
      <trkpt lat="43.24713" lon="5.99723">
        <ele>175.1</ele>
        <time>2018-12-24T13:22:23Z</time>
      </trkpt>
      <trkpt lat="43.24733" lon="5.99709">
        <ele>177.98</ele>
        <time>2018-12-24T13:22:45Z</time>
      </trkpt>
      <trkpt lat="43.24754" lon="5.99698">
        <ele>178.46</ele>
        <time>2018-12-24T13:23:04Z</time>
      </trkpt>
      <trkpt lat="43.24775" lon="5.99682">
        <ele>177.5</ele>
        <time>2018-12-24T13:23:23Z</time>
      </trkpt>
      <trkpt lat="43.24779" lon="5.99682">
        <ele>175.58</ele>
        <time>2018-12-24T13:23:25Z</time>
      </trkpt>
      <trkpt lat="43.24783" lon="5.99683">
        <ele>177.02</ele>
        <time>2018-12-24T13:23:27Z</time>
      </trkpt>
      <trkpt lat="43.24799" lon="5.9969">
        <ele>177.02</ele>
        <time>2018-12-24T13:23:42Z</time>
      </trkpt>
      <trkpt lat="43.24801" lon="5.9969">
        <ele>178.46</ele>
        <time>2018-12-24T13:23:44Z</time>
      </trkpt>
      <trkpt lat="43.2481" lon="5.99689">
        <ele>175.58</ele>
        <time>2018-12-24T13:23:53Z</time>
      </trkpt>
      <trkpt lat="43.24813" lon="5.99689">
        <ele>178.94</ele>
        <time>2018-12-24T13:24:01Z</time>
      </trkpt>
      <trkpt lat="43.24834" lon="5.9969">
        <ele>178.94</ele>
        <time>2018-12-24T13:24:20Z</time>
      </trkpt>
      <trkpt lat="43.24858" lon="5.99682">
        <ele>182.31</ele>
        <time>2018-12-24T13:24:38Z</time>
      </trkpt>
      <trkpt lat="43.24874" lon="5.99668">
        <ele>183.27</ele>
        <time>2018-12-24T13:24:58Z</time>
      </trkpt>
      <trkpt lat="43.24876" lon="5.99668">
        <ele>183.27</ele>
        <time>2018-12-24T13:24:59Z</time>
      </trkpt>
      <trkpt lat="43.24883" lon="5.99673">
        <ele>182.31</ele>
        <time>2018-12-24T13:25:01Z</time>
      </trkpt>
      <trkpt lat="43.24919" lon="5.99682">
        <ele>183.27</ele>
        <time>2018-12-24T13:25:25Z</time>
      </trkpt>
      <trkpt lat="43.24936" lon="5.99676">
        <ele>182.79</ele>
        <time>2018-12-24T13:25:43Z</time>
      </trkpt>
      <trkpt lat="43.24938" lon="5.99673">
        <ele>182.31</ele>
        <time>2018-12-24T13:25:47Z</time>
      </trkpt>
      <trkpt lat="43.24943" lon="5.9967">
        <ele>183.75</ele>
        <time>2018-12-24T13:25:50Z</time>
      </trkpt>
      <trkpt lat="43.24945" lon="5.99668">
        <ele>183.75</ele>
        <time>2018-12-24T13:25:51Z</time>
      </trkpt>
      <trkpt lat="43.24948" lon="5.99668">
        <ele>184.71</ele>
        <time>2018-12-24T13:25:52Z</time>
      </trkpt>
      <trkpt lat="43.24958" lon="5.99659">
        <ele>182.79</ele>
        <time>2018-12-24T13:25:58Z</time>
      </trkpt>
      <trkpt lat="43.24965" lon="5.99632">
        <ele>183.75</ele>
        <time>2018-12-24T13:26:17Z</time>
      </trkpt>
      <trkpt lat="43.2497" lon="5.99626">
        <ele>183.75</ele>
        <time>2018-12-24T13:26:34Z</time>
      </trkpt>
      <trkpt lat="43.24966" lon="5.99606">
        <ele>184.23</ele>
        <time>2018-12-24T13:26:50Z</time>
      </trkpt>
      <trkpt lat="43.24967" lon="5.9959">
        <ele>184.23</ele>
        <time>2018-12-24T13:26:59Z</time>
      </trkpt>
      <trkpt lat="43.24968" lon="5.99575">
        <ele>186.63</ele>
        <time>2018-12-24T13:27:06Z</time>
      </trkpt>
      <trkpt lat="43.2497" lon="5.99549">
        <ele>184.23</ele>
        <time>2018-12-24T13:27:24Z</time>
      </trkpt>
      <trkpt lat="43.24971" lon="5.99516">
        <ele>183.27</ele>
        <time>2018-12-24T13:27:48Z</time>
      </trkpt>
      <trkpt lat="43.24979" lon="5.99477">
        <ele>185.67</ele>
        <time>2018-12-24T13:28:10Z</time>
      </trkpt>
      <trkpt lat="43.24989" lon="5.99453">
        <ele>186.15</ele>
        <time>2018-12-24T13:28:30Z</time>
      </trkpt>
      <trkpt lat="43.25003" lon="5.99424">
        <ele>186.63</ele>
        <time>2018-12-24T13:28:50Z</time>
      </trkpt>
      <trkpt lat="43.25014" lon="5.99404">
        <ele>188.08</ele>
        <time>2018-12-24T13:29:03Z</time>
      </trkpt>
      <trkpt lat="43.25023" lon="5.99395">
        <ele>186.63</ele>
        <time>2018-12-24T13:29:15Z</time>
      </trkpt>
      <trkpt lat="43.25036" lon="5.99371">
        <ele>187.11</ele>
        <time>2018-12-24T13:29:29Z</time>
      </trkpt>
      <trkpt lat="43.25038" lon="5.9937">
        <ele>187.11</ele>
        <time>2018-12-24T13:29:30Z</time>
      </trkpt>
      <trkpt lat="43.25043" lon="5.99367">
        <ele>188.56</ele>
        <time>2018-12-24T13:29:35Z</time>
      </trkpt>
      <trkpt lat="43.25061" lon="5.99354">
        <ele>188.56</ele>
        <time>2018-12-24T13:29:57Z</time>
      </trkpt>
      <trkpt lat="43.25082" lon="5.99336">
        <ele>189.52</ele>
        <time>2018-12-24T13:30:19Z</time>
      </trkpt>
      <trkpt lat="43.25108" lon="5.99322">
        <ele>191.44</ele>
        <time>2018-12-24T13:30:40Z</time>
      </trkpt>
      <trkpt lat="43.25132" lon="5.99316">
        <ele>189.52</ele>
        <time>2018-12-24T13:31:00Z</time>
      </trkpt>
      <trkpt lat="43.25141" lon="5.9931">
        <ele>190</ele>
        <time>2018-12-24T13:31:22Z</time>
      </trkpt>
      <trkpt lat="43.2514" lon="5.99307">
        <ele>190.48</ele>
        <time>2018-12-24T13:31:37Z</time>
      </trkpt>
      <trkpt lat="43.25143" lon="5.99296">
        <ele>189.04</ele>
        <time>2018-12-24T13:31:47Z</time>
      </trkpt>
      <trkpt lat="43.25153" lon="5.99289">
        <ele>191.92</ele>
        <time>2018-12-24T13:32:09Z</time>
      </trkpt>
      <trkpt lat="43.25174" lon="5.99279">
        <ele>190.96</ele>
        <time>2018-12-24T13:32:29Z</time>
      </trkpt>
      <trkpt lat="43.25176" lon="5.99278">
        <ele>190.96</ele>
        <time>2018-12-24T13:32:31Z</time>
      </trkpt>
      <trkpt lat="43.25177" lon="5.99277">
        <ele>190.96</ele>
        <time>2018-12-24T13:32:32Z</time>
      </trkpt>
      <trkpt lat="43.25184" lon="5.99273">
        <ele>192.4</ele>
        <time>2018-12-24T13:32:37Z</time>
      </trkpt>
      <trkpt lat="43.25206" lon="5.99261">
        <ele>193.36</ele>
        <time>2018-12-24T13:32:58Z</time>
      </trkpt>
      <trkpt lat="43.25224" lon="5.99246">
        <ele>193.84</ele>
        <time>2018-12-24T13:33:16Z</time>
      </trkpt>
      <trkpt lat="43.25242" lon="5.99231">
        <ele>193.36</ele>
        <time>2018-12-24T13:33:33Z</time>
      </trkpt>
      <trkpt lat="43.25265" lon="5.99208">
        <ele>193.36</ele>
        <time>2018-12-24T13:33:55Z</time>
      </trkpt>
      <trkpt lat="43.25273" lon="5.99186">
        <ele>194.8</ele>
        <time>2018-12-24T13:34:06Z</time>
      </trkpt>
      <trkpt lat="43.25282" lon="5.99161">
        <ele>194.8</ele>
        <time>2018-12-24T13:34:21Z</time>
      </trkpt>
      <trkpt lat="43.25294" lon="5.99118">
        <ele>194.32</ele>
        <time>2018-12-24T13:34:44Z</time>
      </trkpt>
      <trkpt lat="43.25301" lon="5.991">
        <ele>195.77</ele>
        <time>2018-12-24T13:34:57Z</time>
      </trkpt>
      <trkpt lat="43.25305" lon="5.99082">
        <ele>195.28</ele>
        <time>2018-12-24T13:35:09Z</time>
      </trkpt>
      <trkpt lat="43.2531" lon="5.99061">
        <ele>196.73</ele>
        <time>2018-12-24T13:35:20Z</time>
      </trkpt>
      <trkpt lat="43.25316" lon="5.99024">
        <ele>195.28</ele>
        <time>2018-12-24T13:35:38Z</time>
      </trkpt>
      <trkpt lat="43.25319" lon="5.99">
        <ele>196.73</ele>
        <time>2018-12-24T13:35:53Z</time>
      </trkpt>
      <trkpt lat="43.25321" lon="5.98988">
        <ele>195.28</ele>
        <time>2018-12-24T13:35:59Z</time>
      </trkpt>
      <trkpt lat="43.25323" lon="5.98963">
        <ele>194.32</ele>
        <time>2018-12-24T13:36:17Z</time>
      </trkpt>
      <trkpt lat="43.25327" lon="5.98937">
        <ele>193.84</ele>
        <time>2018-12-24T13:36:35Z</time>
      </trkpt>
      <trkpt lat="43.25328" lon="5.98888">
        <ele>195.28</ele>
        <time>2018-12-24T13:37:00Z</time>
      </trkpt>
      <trkpt lat="43.25328" lon="5.98851">
        <ele>195.28</ele>
        <time>2018-12-24T13:37:21Z</time>
      </trkpt>
      <trkpt lat="43.25328" lon="5.98809">
        <ele>194.32</ele>
        <time>2018-12-24T13:37:43Z</time>
      </trkpt>
      <trkpt lat="43.25335" lon="5.98801">
        <ele>193.84</ele>
        <time>2018-12-24T13:38:00Z</time>
      </trkpt>
      <trkpt lat="43.2534" lon="5.98789">
        <ele>197.21</ele>
        <time>2018-12-24T13:38:16Z</time>
      </trkpt>
      <trkpt lat="43.25335" lon="5.98772">
        <ele>198.17</ele>
        <time>2018-12-24T13:38:29Z</time>
      </trkpt>
      <trkpt lat="43.25336" lon="5.98773">
        <ele>197.69</ele>
        <time>2018-12-24T13:38:32Z</time>
      </trkpt>
      <trkpt lat="43.25337" lon="5.98773">
        <ele>197.69</ele>
        <time>2018-12-24T13:38:33Z</time>
      </trkpt>
      <trkpt lat="43.25338" lon="5.98774">
        <ele>197.69</ele>
        <time>2018-12-24T13:38:34Z</time>
      </trkpt>
      <trkpt lat="43.25344" lon="5.98773">
        <ele>196.73</ele>
        <time>2018-12-24T13:38:49Z</time>
      </trkpt>
      <trkpt lat="43.25348" lon="5.98751">
        <ele>196.73</ele>
        <time>2018-12-24T13:39:09Z</time>
      </trkpt>
      <trkpt lat="43.25352" lon="5.98719">
        <ele>199.61</ele>
        <time>2018-12-24T13:39:28Z</time>
      </trkpt>
      <trkpt lat="43.25353" lon="5.98687">
        <ele>200.09</ele>
        <time>2018-12-24T13:39:46Z</time>
      </trkpt>
      <trkpt lat="43.25353" lon="5.98683">
        <ele>198.65</ele>
        <time>2018-12-24T13:39:49Z</time>
      </trkpt>
      <trkpt lat="43.25357" lon="5.98669">
        <ele>198.65</ele>
        <time>2018-12-24T13:40:04Z</time>
      </trkpt>
      <trkpt lat="43.25361" lon="5.98663">
        <ele>198.65</ele>
        <time>2018-12-24T13:40:09Z</time>
      </trkpt>
      <trkpt lat="43.25364" lon="5.98631">
        <ele>198.65</ele>
        <time>2018-12-24T13:40:29Z</time>
      </trkpt>
      <trkpt lat="43.25362" lon="5.98593">
        <ele>200.09</ele>
        <time>2018-12-24T13:40:50Z</time>
      </trkpt>
      <trkpt lat="43.25362" lon="5.98591">
        <ele>200.09</ele>
        <time>2018-12-24T13:40:51Z</time>
      </trkpt>
      <trkpt lat="43.25358" lon="5.98559">
        <ele>201.05</ele>
        <time>2018-12-24T13:41:11Z</time>
      </trkpt>
      <trkpt lat="43.25342" lon="5.98528">
        <ele>202.01</ele>
        <time>2018-12-24T13:41:33Z</time>
      </trkpt>
      <trkpt lat="43.25339" lon="5.98505">
        <ele>203.46</ele>
        <time>2018-12-24T13:41:48Z</time>
      </trkpt>
      <trkpt lat="43.25339" lon="5.98503">
        <ele>203.46</ele>
        <time>2018-12-24T13:41:49Z</time>
      </trkpt>
      <trkpt lat="43.25323" lon="5.98477">
        <ele>205.38</ele>
        <time>2018-12-24T13:42:12Z</time>
      </trkpt>
      <trkpt lat="43.25321" lon="5.98469">
        <ele>204.42</ele>
        <time>2018-12-24T13:42:22Z</time>
      </trkpt>
      <trkpt lat="43.25329" lon="5.98457">
        <ele>203.94</ele>
        <time>2018-12-24T13:42:40Z</time>
      </trkpt>
      <trkpt lat="43.25344" lon="5.98472">
        <ele>202.49</ele>
        <time>2018-12-24T13:43:01Z</time>
      </trkpt>
      <trkpt lat="43.25368" lon="5.98481">
        <ele>202.49</ele>
        <time>2018-12-24T13:43:19Z</time>
      </trkpt>
      <trkpt lat="43.254" lon="5.98464">
        <ele>202.49</ele>
        <time>2018-12-24T13:43:43Z</time>
      </trkpt>
      <trkpt lat="43.25411" lon="5.98431">
        <ele>203.94</ele>
        <time>2018-12-24T13:43:59Z</time>
      </trkpt>
      <trkpt lat="43.25424" lon="5.98403">
        <ele>202.98</ele>
        <time>2018-12-24T13:44:20Z</time>
      </trkpt>
      <trkpt lat="43.25434" lon="5.98365">
        <ele>202.98</ele>
        <time>2018-12-24T13:44:41Z</time>
      </trkpt>
      <trkpt lat="43.25436" lon="5.98347">
        <ele>203.94</ele>
        <time>2018-12-24T13:44:51Z</time>
      </trkpt>
      <trkpt lat="43.25435" lon="5.98311">
        <ele>205.86</ele>
        <time>2018-12-24T13:45:12Z</time>
      </trkpt>
      <trkpt lat="43.25436" lon="5.98274">
        <ele>204.42</ele>
        <time>2018-12-24T13:45:35Z</time>
      </trkpt>
      <trkpt lat="43.25432" lon="5.98242">
        <ele>205.86</ele>
        <time>2018-12-24T13:45:56Z</time>
      </trkpt>
      <trkpt lat="43.25431" lon="5.98214">
        <ele>205.86</ele>
        <time>2018-12-24T13:46:16Z</time>
      </trkpt>
      <trkpt lat="43.25428" lon="5.98193">
        <ele>206.34</ele>
        <time>2018-12-24T13:46:27Z</time>
      </trkpt>
      <trkpt lat="43.25423" lon="5.9817">
        <ele>210.19</ele>
        <time>2018-12-24T13:46:46Z</time>
      </trkpt>
      <trkpt lat="43.25425" lon="5.98155">
        <ele>206.34</ele>
        <time>2018-12-24T13:46:52Z</time>
      </trkpt>
      <trkpt lat="43.25427" lon="5.98144">
        <ele>209.22</ele>
        <time>2018-12-24T13:47:15Z</time>
      </trkpt>
      <trkpt lat="43.25424" lon="5.98135">
        <ele>209.7</ele>
        <time>2018-12-24T13:47:22Z</time>
      </trkpt>
      <trkpt lat="43.25423" lon="5.98131">
        <ele>208.26</ele>
        <time>2018-12-24T13:47:24Z</time>
      </trkpt>
      <trkpt lat="43.25417" lon="5.98116">
        <ele>210.67</ele>
        <time>2018-12-24T13:47:43Z</time>
      </trkpt>
      <trkpt lat="43.25417" lon="5.98113">
        <ele>210.67</ele>
        <time>2018-12-24T13:47:45Z</time>
      </trkpt>
      <trkpt lat="43.25413" lon="5.98081">
        <ele>211.15</ele>
        <time>2018-12-24T13:48:04Z</time>
      </trkpt>
      <trkpt lat="43.25413" lon="5.98077">
        <ele>212.59</ele>
        <time>2018-12-24T13:48:08Z</time>
      </trkpt>
      <trkpt lat="43.2541" lon="5.9806">
        <ele>214.03</ele>
        <time>2018-12-24T13:48:28Z</time>
      </trkpt>
      <trkpt lat="43.25397" lon="5.98056">
        <ele>217.4</ele>
        <time>2018-12-24T13:48:37Z</time>
      </trkpt>
      <trkpt lat="43.25396" lon="5.98052">
        <ele>210.25390625</ele>
      </trkpt>
      <trkpt lat="43.25376" lon="5.98013">
        <ele>215.609375</ele>
      </trkpt>
      <trkpt lat="43.25408" lon="5.98007">
        <ele>220.85546875</ele>
      </trkpt>
      <trkpt lat="43.25433" lon="5.98026">
        <ele>220.68359375</ele>
      </trkpt>
      <trkpt lat="43.25451" lon="5.98032">
        <ele>225.69921875</ele>
      </trkpt>
      <trkpt lat="43.25463" lon="5.97999">
        <ele>232.703125</ele>
      </trkpt>
      <trkpt lat="43.25488" lon="5.97972">
        <ele>239.85546875</ele>
      </trkpt>
      <trkpt lat="43.25498" lon="5.97966">
        <ele>243.23828125</ele>
      </trkpt>
      <trkpt lat="43.25501" lon="5.97953">
        <ele>245.03125</ele>
      </trkpt>
      <trkpt lat="43.25505" lon="5.97945">
        <ele>246.59375</ele>
      </trkpt>
      <trkpt lat="43.25501" lon="5.97952">
        <ele>245.13671875</ele>
      </trkpt>
      <trkpt lat="43.25488" lon="5.97948">
        <ele>242.63671875</ele>
      </trkpt>
      <trkpt lat="43.25477" lon="5.97945">
        <ele>240.72265625</ele>
      </trkpt>
      <trkpt lat="43.2547" lon="5.97945">
        <ele>240.35546875</ele>
      </trkpt>
      <trkpt lat="43.25452" lon="5.97937">
        <ele>242.640625</ele>
      </trkpt>
      <trkpt lat="43.25446" lon="5.97934">
        <ele>243.625</ele>
      </trkpt>
      <trkpt lat="43.25444" lon="5.97922">
        <ele>246.71484375</ele>
      </trkpt>
      <trkpt lat="43.25448" lon="5.97909">
        <ele>249.37890625</ele>
      </trkpt>
      <trkpt lat="43.25453" lon="5.97894">
        <ele>252.26171875</ele>
      </trkpt>
      <trkpt lat="43.25455" lon="5.97881">
        <ele>255.2109375</ele>
      </trkpt>
      <trkpt lat="43.25447" lon="5.97827">
        <ele>267.26171875</ele>
      </trkpt>
      <trkpt lat="43.25448" lon="5.97793">
        <ele>274.75</ele>
      </trkpt>
      <trkpt lat="43.25448" lon="5.97733">
        <ele>292.078125</ele>
      </trkpt>
      <trkpt lat="43.25449" lon="5.97702">
        <ele>301.8984375</ele>
      </trkpt>
      <trkpt lat="43.25453" lon="5.97688">
        <ele>305.859375</ele>
      </trkpt>
      <trkpt lat="43.25457" lon="5.9767">
        <ele>310.98828125</ele>
      </trkpt>
      <trkpt lat="43.25449" lon="5.97671">
        <ele>312.0546875</ele>
      </trkpt>
      <trkpt lat="43.2544" lon="5.97667">
        <ele>314.75</ele>
      </trkpt>
      <trkpt lat="43.25436" lon="5.97662">
        <ele>317.08203125</ele>
      </trkpt>
      <trkpt lat="43.25414" lon="5.97666">
        <ele>319.6328125</ele>
      </trkpt>
      <trkpt lat="43.25385" lon="5.97678">
        <ele>323.09765625</ele>
      </trkpt>
      <trkpt lat="43.25366" lon="5.97679">
        <ele>327.67578125</ele>
      </trkpt>
      <trkpt lat="43.25347" lon="5.97675">
        <ele>331.5859375</ele>
      </trkpt>
      <trkpt lat="43.25339" lon="5.97671">
        <ele>333.7265625</ele>
      </trkpt>
      <trkpt lat="43.25329" lon="5.97663">
        <ele>336.75</ele>
      </trkpt>
      <trkpt lat="43.2532" lon="5.97665">
        <ele>337.8046875</ele>
      </trkpt>
      <trkpt lat="43.2529" lon="5.97668">
        <ele>338.3359375</ele>
      </trkpt>
      <trkpt lat="43.25282" lon="5.97665">
        <ele>338.62109375</ele>
      </trkpt>
      <trkpt lat="43.25271" lon="5.97661">
        <ele>338.9375</ele>
      </trkpt>
      <trkpt lat="43.25263" lon="5.97663">
        <ele>338.35546875</ele>
      </trkpt>
      <trkpt lat="43.25253" lon="5.97662">
        <ele>338.2421875</ele>
      </trkpt>
      <trkpt lat="43.25249" lon="5.97656">
        <ele>338.73828125</ele>
      </trkpt>
      <trkpt lat="43.25231" lon="5.97644">
        <ele>338.71484375</ele>
      </trkpt>
      <trkpt lat="43.25217" lon="5.97641">
        <ele>337.6015625</ele>
      </trkpt>
      <trkpt lat="43.25196" lon="5.97647">
        <ele>333.32421875</ele>
      </trkpt>
      <trkpt lat="43.25175" lon="5.97653">
        <ele>328.9375</ele>
      </trkpt>
      <trkpt lat="43.25153" lon="5.97673">
        <ele>318.50390625</ele>
      </trkpt>
      <trkpt lat="43.25141" lon="5.9769">
        <ele>309.3671875</ele>
      </trkpt>
      <trkpt lat="43.25133" lon="5.97699">
        <ele>306.546875</ele>
      </trkpt>
      <trkpt lat="43.25119" lon="5.977">
        <ele>305.86328125</ele>
      </trkpt>
      <trkpt lat="43.25092" lon="5.97691">
        <ele>308.4453125</ele>
      </trkpt>
      <trkpt lat="43.25076" lon="5.97682">
        <ele>313.04296875</ele>
      </trkpt>
      <trkpt lat="43.25068" lon="5.97676">
        <ele>316.33203125</ele>
      </trkpt>
      <trkpt lat="43.25055" lon="5.97678">
        <ele>316.6796875</ele>
      </trkpt>
      <trkpt lat="43.25047" lon="5.97691">
        <ele>312.37890625</ele>
      </trkpt>
      <trkpt lat="43.25031" lon="5.97695">
        <ele>312.96484375</ele>
      </trkpt>
      <trkpt lat="43.25014" lon="5.97684">
        <ele>316.6171875</ele>
      </trkpt>
      <trkpt lat="43.24988" lon="5.97672">
        <ele>320.43359375</ele>
      </trkpt>
      <trkpt lat="43.24964" lon="5.9767">
        <ele>322.203125</ele>
      </trkpt>
      <trkpt lat="43.24953" lon="5.97669">
        <ele>323.5390625</ele>
      </trkpt>
      <trkpt lat="43.24944" lon="5.97679">
        <ele>322.35546875</ele>
      </trkpt>
      <trkpt lat="43.24939" lon="5.977">
        <ele>319.89453125</ele>
      </trkpt>
      <trkpt lat="43.24939" lon="5.97737">
        <ele>317.20703125</ele>
      </trkpt>
      <trkpt lat="43.24938" lon="5.97772">
        <ele>317.51171875</ele>
      </trkpt>
      <trkpt lat="43.2494" lon="5.97807">
        <ele>317.78515625</ele>
      </trkpt>
      <trkpt lat="43.24942" lon="5.97834">
        <ele>322.296875</ele>
      </trkpt>
      <trkpt lat="43.24941" lon="5.97846">
        <ele>324.73828125</ele>
      </trkpt>
      <trkpt lat="43.2493" lon="5.97858">
        <ele>329.484375</ele>
      </trkpt>
      <trkpt lat="43.24929" lon="5.97868">
        <ele>330.49609375</ele>
      </trkpt>
      <trkpt lat="43.24937" lon="5.97911">
        <ele>332.015625</ele>
      </trkpt>
      <trkpt lat="43.24953" lon="5.97938">
        <ele>329.5625</ele>
      </trkpt>
      <trkpt lat="43.24983" lon="5.9795">
        <ele>327.09765625</ele>
      </trkpt>
      <trkpt lat="43.24997" lon="5.97962">
        <ele>325.9765625</ele>
      </trkpt>
      <trkpt lat="43.25013" lon="5.97977">
        <ele>324.72265625</ele>
      </trkpt>
      <trkpt lat="43.25041" lon="5.98045">
        <ele>318.21875</ele>
      </trkpt>
      <trkpt lat="43.25053" lon="5.98078">
        <ele>313.06640625</ele>
      </trkpt>
      <trkpt lat="43.25083" lon="5.98109">
        <ele>308.5</ele>
      </trkpt>
      <trkpt lat="43.25091" lon="5.98127">
        <ele>305.609375</ele>
      </trkpt>
      <trkpt lat="43.25094" lon="5.98165">
        <ele>305.4609375</ele>
      </trkpt>
      <trkpt lat="43.25087" lon="5.98209">
        <ele>312.19921875</ele>
      </trkpt>
      <trkpt lat="43.25065" lon="5.98241">
        <ele>317.51171875</ele>
      </trkpt>
      <trkpt lat="43.25045" lon="5.98261">
        <ele>319.4921875</ele>
      </trkpt>
      <trkpt lat="43.25015" lon="5.9829">
        <ele>319.4296875</ele>
      </trkpt>
      <trkpt lat="43.24971" lon="5.98337">
        <ele>315.23828125</ele>
      </trkpt>
      <trkpt lat="43.24943" lon="5.9837">
        <ele>309.04296875</ele>
      </trkpt>
      <trkpt lat="43.24928" lon="5.98398">
        <ele>304.0625</ele>
      </trkpt>
      <trkpt lat="43.2493" lon="5.98412">
        <ele>303.4375</ele>
      </trkpt>
      <trkpt lat="43.24951" lon="5.98436">
        <ele>301.54296875</ele>
      </trkpt>
      <trkpt lat="43.24979" lon="5.9846">
        <ele>301.625</ele>
      </trkpt>
      <trkpt lat="43.2499" lon="5.98482">
        <ele>298.16015625</ele>
      </trkpt>
      <trkpt lat="43.24991" lon="5.98494">
        <ele>296.421875</ele>
      </trkpt>
      <trkpt lat="43.24988" lon="5.98526">
        <ele>291.46875</ele>
      </trkpt>
      <trkpt lat="43.24988" lon="5.98541">
        <ele>289.06640625</ele>
      </trkpt>
      <trkpt lat="43.24995" lon="5.98551">
        <ele>287.2578125</ele>
      </trkpt>
      <trkpt lat="43.25055" lon="5.98571">
        <ele>277.0546875</ele>
      </trkpt>
      <trkpt lat="43.25068" lon="5.98584">
        <ele>272.37109375</ele>
      </trkpt>
      <trkpt lat="43.25073" lon="5.98627">
        <ele>266.25390625</ele>
      </trkpt>
      <trkpt lat="43.25065" lon="5.98682">
        <ele>263.3828125</ele>
      </trkpt>
      <trkpt lat="43.25058" lon="5.98716">
        <ele>264.12890625</ele>
      </trkpt>
      <trkpt lat="43.25045" lon="5.98738">
        <ele>268.21875</ele>
      </trkpt>
      <trkpt lat="43.25042" lon="5.98741">
        <ele>269.05859375</ele>
      </trkpt>
      <trkpt lat="43.25028" lon="5.98728">
        <ele>273.76171875</ele>
      </trkpt>
      <trkpt lat="43.24998" lon="5.98714">
        <ele>276.65234375</ele>
      </trkpt>
      <trkpt lat="43.24972" lon="5.98712">
        <ele>278.34765625</ele>
      </trkpt>
      <trkpt lat="43.24914" lon="5.98758">
        <ele>278.98828125</ele>
      </trkpt>
      <trkpt lat="43.24914" lon="5.98759">
        <ele>284.21</ele>
        <time>2018-12-24T14:44:38Z</time>
      </trkpt>
      <trkpt lat="43.2491" lon="5.98768">
        <ele>283.73</ele>
        <time>2018-12-24T14:44:46Z</time>
      </trkpt>
      <trkpt lat="43.24907" lon="5.98776">
        <ele>283.73</ele>
        <time>2018-12-24T14:44:54Z</time>
      </trkpt>
      <trkpt lat="43.249" lon="5.98777">
        <ele>282.28</ele>
        <time>2018-12-24T14:45:04Z</time>
      </trkpt>
      <trkpt lat="43.24891" lon="5.98756">
        <ele>282.77</ele>
        <time>2018-12-24T14:45:22Z</time>
      </trkpt>
      <trkpt lat="43.24891" lon="5.98755">
        <ele>282.77</ele>
        <time>2018-12-24T14:45:23Z</time>
      </trkpt>
      <trkpt lat="43.24888" lon="5.98744">
        <ele>281.8</ele>
        <time>2018-12-24T14:45:32Z</time>
      </trkpt>
      <trkpt lat="43.24887" lon="5.98743">
        <ele>281.8</ele>
        <time>2018-12-24T14:45:33Z</time>
      </trkpt>
      <trkpt lat="43.24877" lon="5.98728">
        <ele>281.32</ele>
        <time>2018-12-24T14:45:47Z</time>
      </trkpt>
      <trkpt lat="43.24867" lon="5.98718">
        <ele>280.84</ele>
        <time>2018-12-24T14:46:02Z</time>
      </trkpt>
      <trkpt lat="43.24864" lon="5.98716">
        <ele>280.84</ele>
        <time>2018-12-24T14:46:05Z</time>
      </trkpt>
      <trkpt lat="43.24845" lon="5.98708">
        <ele>279.4</ele>
        <time>2018-12-24T14:46:23Z</time>
      </trkpt>
      <trkpt lat="43.24838" lon="5.98705">
        <ele>277</ele>
        <time>2018-12-24T14:46:29Z</time>
      </trkpt>
      <trkpt lat="43.24818" lon="5.98707">
        <ele>274.11</ele>
        <time>2018-12-24T14:46:45Z</time>
      </trkpt>
      <trkpt lat="43.24816" lon="5.98708">
        <ele>274.11</ele>
        <time>2018-12-24T14:46:46Z</time>
      </trkpt>
      <trkpt lat="43.24806" lon="5.98706">
        <ele>275.56</ele>
        <time>2018-12-24T14:46:54Z</time>
      </trkpt>
      <trkpt lat="43.248" lon="5.98708">
        <ele>274.11</ele>
        <time>2018-12-24T14:47:00Z</time>
      </trkpt>
      <trkpt lat="43.24791" lon="5.98706">
        <ele>272.19</ele>
        <time>2018-12-24T14:47:16Z</time>
      </trkpt>
      <trkpt lat="43.24781" lon="5.98715">
        <ele>271.71</ele>
        <time>2018-12-24T14:47:36Z</time>
      </trkpt>
      <trkpt lat="43.24777" lon="5.98723">
        <ele>271.23</ele>
        <time>2018-12-24T14:47:50Z</time>
      </trkpt>
      <trkpt lat="43.24773" lon="5.98725">
        <ele>270.75</ele>
        <time>2018-12-24T14:47:54Z</time>
      </trkpt>
      <trkpt lat="43.24761" lon="5.98739">
        <ele>269.31</ele>
        <time>2018-12-24T14:48:10Z</time>
      </trkpt>
      <trkpt lat="43.24756" lon="5.98751">
        <ele>267.38</ele>
        <time>2018-12-24T14:48:29Z</time>
      </trkpt>
      <trkpt lat="43.24757" lon="5.98751">
        <ele>268.83</ele>
        <time>2018-12-24T14:48:33Z</time>
      </trkpt>
      <trkpt lat="43.24745" lon="5.98759">
        <ele>266.42</ele>
        <time>2018-12-24T14:48:44Z</time>
      </trkpt>
      <trkpt lat="43.24739" lon="5.98765">
        <ele>264.5</ele>
        <time>2018-12-24T14:48:51Z</time>
      </trkpt>
      <trkpt lat="43.24734" lon="5.98766">
        <ele>263.54</ele>
        <time>2018-12-24T14:49:07Z</time>
      </trkpt>
      <trkpt lat="43.24731" lon="5.9877">
        <ele>263.54</ele>
        <time>2018-12-24T14:49:17Z</time>
      </trkpt>
      <trkpt lat="43.24726" lon="5.98779">
        <ele>262.58</ele>
        <time>2018-12-24T14:49:25Z</time>
      </trkpt>
      <trkpt lat="43.24723" lon="5.98788">
        <ele>264.02</ele>
        <time>2018-12-24T14:49:31Z</time>
      </trkpt>
      <trkpt lat="43.24719" lon="5.98808">
        <ele>264.5</ele>
        <time>2018-12-24T14:49:42Z</time>
      </trkpt>
      <trkpt lat="43.24715" lon="5.98818">
        <ele>264.98</ele>
        <time>2018-12-24T14:49:58Z</time>
      </trkpt>
      <trkpt lat="43.24716" lon="5.98833">
        <ele>264.5</ele>
        <time>2018-12-24T14:50:20Z</time>
      </trkpt>
      <trkpt lat="43.24719" lon="5.98844">
        <ele>264.5</ele>
        <time>2018-12-24T14:50:44Z</time>
      </trkpt>
      <trkpt lat="43.24717" lon="5.98861">
        <ele>265.94</ele>
        <time>2018-12-24T14:50:59Z</time>
      </trkpt>
      <trkpt lat="43.24717" lon="5.98867">
        <ele>266.42</ele>
        <time>2018-12-24T14:51:15Z</time>
      </trkpt>
      <trkpt lat="43.24718" lon="5.98879">
        <ele>267.86</ele>
        <time>2018-12-24T14:51:32Z</time>
      </trkpt>
      <trkpt lat="43.24717" lon="5.98894">
        <ele>266.9</ele>
        <time>2018-12-24T14:51:45Z</time>
      </trkpt>
      <trkpt lat="43.24678" lon="5.99096">
        <ele>261.14</ele>
        <time>2018-12-24T15:11:28Z</time>
      </trkpt>
      <trkpt lat="43.24668" lon="5.99105">
        <ele>257.77</ele>
        <time>2018-12-24T15:11:44Z</time>
      </trkpt>
      <trkpt lat="43.24661" lon="5.99113">
        <ele>254.89</ele>
        <time>2018-12-24T15:11:59Z</time>
      </trkpt>
      <trkpt lat="43.24655" lon="5.99117">
        <ele>252.96</ele>
        <time>2018-12-24T15:12:07Z</time>
      </trkpt>
      <trkpt lat="43.24642" lon="5.99134">
        <ele>250.08</ele>
        <time>2018-12-24T15:12:24Z</time>
      </trkpt>
      <trkpt lat="43.24636" lon="5.99143">
        <ele>247.2</ele>
        <time>2018-12-24T15:12:35Z</time>
      </trkpt>
      <trkpt lat="43.24627" lon="5.99154">
        <ele>243.83</ele>
        <time>2018-12-24T15:12:48Z</time>
      </trkpt>
      <trkpt lat="43.24625" lon="5.99158">
        <ele>243.83</ele>
        <time>2018-12-24T15:12:51Z</time>
      </trkpt>
      <trkpt lat="43.2462" lon="5.99172">
        <ele>242.87</ele>
        <time>2018-12-24T15:13:01Z</time>
      </trkpt>
      <trkpt lat="43.24612" lon="5.99191">
        <ele>242.39</ele>
        <time>2018-12-24T15:13:16Z</time>
      </trkpt>
      <trkpt lat="43.24612" lon="5.99194">
        <ele>242.39</ele>
        <time>2018-12-24T15:13:18Z</time>
      </trkpt>
      <trkpt lat="43.24601" lon="5.99213">
        <ele>239.02</ele>
        <time>2018-12-24T15:13:36Z</time>
      </trkpt>
      <trkpt lat="43.24598" lon="5.99219">
        <ele>238.06</ele>
        <time>2018-12-24T15:13:42Z</time>
      </trkpt>
      <trkpt lat="43.24591" lon="5.99235">
        <ele>236.62</ele>
        <time>2018-12-24T15:13:57Z</time>
      </trkpt>
      <trkpt lat="43.24582" lon="5.99257">
        <ele>234.7</ele>
        <time>2018-12-24T15:14:15Z</time>
      </trkpt>
      <trkpt lat="43.24578" lon="5.99264">
        <ele>233.74</ele>
        <time>2018-12-24T15:14:22Z</time>
      </trkpt>
      <trkpt lat="43.24569" lon="5.99279">
        <ele>231.33</ele>
        <time>2018-12-24T15:14:37Z</time>
      </trkpt>
      <trkpt lat="43.24562" lon="5.99298">
        <ele>228.93</ele>
        <time>2018-12-24T15:14:54Z</time>
      </trkpt>
      <trkpt lat="43.24558" lon="5.99315">
        <ele>227.01</ele>
        <time>2018-12-24T15:15:09Z</time>
      </trkpt>
      <trkpt lat="43.24551" lon="5.99333">
        <ele>224.61</ele>
        <time>2018-12-24T15:15:26Z</time>
      </trkpt>
      <trkpt lat="43.24543" lon="5.99352">
        <ele>222.68</ele>
        <time>2018-12-24T15:15:41Z</time>
      </trkpt>
      <trkpt lat="43.24539" lon="5.9937">
        <ele>221.24</ele>
        <time>2018-12-24T15:15:55Z</time>
      </trkpt>
      <trkpt lat="43.24535" lon="5.99379">
        <ele>219.8</ele>
        <time>2018-12-24T15:16:06Z</time>
      </trkpt>
      <trkpt lat="43.24531" lon="5.99387">
        <ele>217.4</ele>
        <time>2018-12-24T15:16:14Z</time>
      </trkpt>
      <trkpt lat="43.24529" lon="5.99391">
        <ele>215.95</ele>
        <time>2018-12-24T15:16:18Z</time>
      </trkpt>
      <trkpt lat="43.24519" lon="5.99409">
        <ele>213.07</ele>
        <time>2018-12-24T15:16:35Z</time>
      </trkpt>
      <trkpt lat="43.24512" lon="5.9942">
        <ele>211.63</ele>
        <time>2018-12-24T15:16:51Z</time>
      </trkpt>
      <trkpt lat="43.24508" lon="5.99433">
        <ele>210.19</ele>
        <time>2018-12-24T15:17:06Z</time>
      </trkpt>
      <trkpt lat="43.24504" lon="5.99446">
        <ele>210.19</ele>
        <time>2018-12-24T15:17:21Z</time>
      </trkpt>
      <trkpt lat="43.24502" lon="5.99458">
        <ele>210.19</ele>
        <time>2018-12-24T15:17:36Z</time>
      </trkpt>
      <trkpt lat="43.24502" lon="5.99477">
        <ele>209.22</ele>
        <time>2018-12-24T15:17:51Z</time>
      </trkpt>
      <trkpt lat="43.24498" lon="5.99492">
        <ele>206.82</ele>
        <time>2018-12-24T15:18:06Z</time>
      </trkpt>
      <trkpt lat="43.24498" lon="5.99512">
        <ele>204.9</ele>
        <time>2018-12-24T15:18:21Z</time>
      </trkpt>
      <trkpt lat="43.24497" lon="5.99533">
        <ele>202.49</ele>
        <time>2018-12-24T15:18:37Z</time>
      </trkpt>
      <trkpt lat="43.24494" lon="5.99549">
        <ele>200.57</ele>
        <time>2018-12-24T15:18:53Z</time>
      </trkpt>
      <trkpt lat="43.24494" lon="5.99566">
        <ele>198.17</ele>
        <time>2018-12-24T15:19:07Z</time>
      </trkpt>
      <trkpt lat="43.24495" lon="5.99566">
        <ele>199.61</ele>
        <time>2018-12-24T15:19:09Z</time>
      </trkpt>
      <trkpt lat="43.24494" lon="5.99566">
        <ele>198.17</ele>
        <time>2018-12-24T15:19:13Z</time>
      </trkpt>
      <trkpt lat="43.24492" lon="5.99576">
        <ele>195.77</ele>
        <time>2018-12-24T15:19:25Z</time>
      </trkpt>
      <trkpt lat="43.24489" lon="5.99585">
        <ele>194.32</ele>
        <time>2018-12-24T15:19:35Z</time>
      </trkpt>
      <trkpt lat="43.24488" lon="5.99595">
        <ele>193.84</ele>
        <time>2018-12-24T15:19:49Z</time>
      </trkpt>
      <trkpt lat="43.24487" lon="5.99602">
        <ele>193.36</ele>
        <time>2018-12-24T15:19:57Z</time>
      </trkpt>
      <trkpt lat="43.24484" lon="5.99617">
        <ele>191.44</ele>
        <time>2018-12-24T15:20:10Z</time>
      </trkpt>
      <trkpt lat="43.24484" lon="5.9963">
        <ele>189.04</ele>
        <time>2018-12-24T15:20:23Z</time>
      </trkpt>
      <trkpt lat="43.24483" lon="5.99646">
        <ele>187.59</ele>
        <time>2018-12-24T15:20:37Z</time>
      </trkpt>
      <trkpt lat="43.24486" lon="5.99667">
        <ele>185.67</ele>
        <time>2018-12-24T15:20:52Z</time>
      </trkpt>
      <trkpt lat="43.24486" lon="5.99669">
        <ele>184.71</ele>
        <time>2018-12-24T15:20:54Z</time>
      </trkpt>
      <trkpt lat="43.24484" lon="5.99688">
        <ele>184.71</ele>
        <time>2018-12-24T15:21:10Z</time>
      </trkpt>
      <trkpt lat="43.24489" lon="5.9971">
        <ele>184.23</ele>
        <time>2018-12-24T15:21:25Z</time>
      </trkpt>
      <trkpt lat="43.24493" lon="5.99733">
        <ele>181.83</ele>
        <time>2018-12-24T15:21:41Z</time>
      </trkpt>
      <trkpt lat="43.24498" lon="5.99751">
        <ele>178.94</ele>
        <time>2018-12-24T15:21:54Z</time>
      </trkpt>
      <trkpt lat="43.24498" lon="5.99765">
        <ele>178.94</ele>
        <time>2018-12-24T15:22:06Z</time>
      </trkpt>
      <trkpt lat="43.24497" lon="5.99769">
        <ele>177.98</ele>
        <time>2018-12-24T15:22:10Z</time>
      </trkpt>
      <trkpt lat="43.24498" lon="5.99777">
        <ele>177.02</ele>
        <time>2018-12-24T15:22:22Z</time>
      </trkpt>
      <trkpt lat="43.24497" lon="5.9978">
        <ele>174.62</ele>
        <time>2018-12-24T15:22:40Z</time>
      </trkpt>
      <trkpt lat="43.24493" lon="5.99785">
        <ele>172.69</ele>
        <time>2018-12-24T15:22:52Z</time>
      </trkpt>
      <trkpt lat="43.24498" lon="5.99793">
        <ele>171.25</ele>
        <time>2018-12-24T15:23:06Z</time>
      </trkpt>
      <trkpt lat="43.24501" lon="5.99811">
        <ele>170.29</ele>
        <time>2018-12-24T15:23:20Z</time>
      </trkpt>
      <trkpt lat="43.245" lon="5.9983">
        <ele>168.85</ele>
        <time>2018-12-24T15:23:34Z</time>
      </trkpt>
      <trkpt lat="43.24501" lon="5.99841">
        <ele>168.37</ele>
        <time>2018-12-24T15:23:49Z</time>
      </trkpt>
      <trkpt lat="43.24505" lon="5.99845">
        <ele>168.37</ele>
        <time>2018-12-24T15:24:06Z</time>
      </trkpt>
      <trkpt lat="43.24511" lon="5.99853">
        <ele>169.81</ele>
        <time>2018-12-24T15:24:16Z</time>
      </trkpt>
      <trkpt lat="43.24519" lon="5.99865">
        <ele>170.29</ele>
        <time>2018-12-24T15:24:33Z</time>
      </trkpt>
      <trkpt lat="43.24535" lon="5.99888">
        <ele>162.65625</ele>
      </trkpt>
      <trkpt lat="43.24538" lon="5.99898">
        <ele>161.890625</ele>
      </trkpt>
      <trkpt lat="43.24529" lon="5.99915">
        <ele>160.66015625</ele>
      </trkpt>
      <trkpt lat="43.24526" lon="5.99921">
        <ele>160.09765625</ele>
      </trkpt>
      <trkpt lat="43.2451" lon="5.99935">
        <ele>158.16796875</ele>
      </trkpt>
      <trkpt lat="43.24509" lon="5.99939">
        <ele>157.8125</ele>
      </trkpt>
      <trkpt lat="43.2452" lon="5.99977">
        <ele>156.04296875</ele>
      </trkpt>
      <trkpt lat="43.24526" lon="5.99999">
        <ele>155.60546875</ele>
      </trkpt>
      <trkpt lat="43.24519" lon="6.00009">
        <ele>155.01171875</ele>
      </trkpt>
      <trkpt lat="43.24513" lon="6.00017">
        <ele>154.5234375</ele>
      </trkpt>
      <trkpt lat="43.24516" lon="6.00036">
        <ele>154.5</ele>
      </trkpt>
      <trkpt lat="43.24484" lon="6.00043">
        <ele>153.57421875</ele>
      </trkpt>
      <trkpt lat="43.24454" lon="6.00045">
        <ele>153.4453125</ele>
      </trkpt>
      <trkpt lat="43.24414" lon="6.00046">
        <ele>153.640625</ele>
      </trkpt>
      <trkpt lat="43.24389" lon="6.00055">
        <ele>154.265625</ele>
      </trkpt>
      <trkpt lat="43.24364" lon="6.00079">
        <ele>155.984375</ele>
      </trkpt>
      <trkpt lat="43.24346" lon="6.00101">
        <ele>157.1796875</ele>
      </trkpt>
      <trkpt lat="43.24335" lon="6.0012">
        <ele>158.21875</ele>
      </trkpt>
    </trkseg>
  </trk>
</gpx>